createdAt,value
2018-08-11T00:00:53.204Z,18.60
2018-08-11T00:03:21.451Z,18.60
2018-08-11T00:05:49.717Z,18.70
2018-08-11T00:08:17.968Z,18.60
2018-08-11T00:10:46.955Z,18.60
2018-08-11T00:13:15.940Z,18.60
2018-08-11T00:15:44.986Z,18.60
2018-08-11T00:18:13.193Z,18.60
2018-08-11T00:20:41.438Z,18.60
2018-08-11T00:23:09.646Z,18.60
2018-08-11T00:25:37.854Z,18.50
2018-08-11T00:28:06.090Z,18.50
2018-08-11T00:30:34.335Z,18.50
2018-08-11T00:33:02.594Z,18.30
2018-08-11T00:35:30.816Z,18.30
2018-08-11T00:37:59.028Z,18.30
2018-08-11T00:40:28.015Z,18.20
2018-08-11T00:42:57.042Z,18.10
2018-08-11T00:45:26.156Z,18.00
2018-08-11T00:47:54.368Z,18.10
2018-08-11T00:50:22.644Z,18.10
2018-08-11T00:52:50.882Z,18.10
2018-08-11T00:55:19.083Z,18.10
2018-08-11T00:57:47.340Z,18.10
2018-08-11T01:00:15.578Z,18.10
2018-08-11T01:02:44.602Z,17.80
2018-08-11T01:05:12.816Z,17.80
2018-08-11T01:07:41.052Z,17.80
2018-08-11T01:10:09.302Z,17.80
2018-08-11T01:12:38.278Z,17.70
2018-08-11T01:15:07.306Z,17.70
2018-08-11T01:17:35.565Z,17.70
2018-08-11T01:20:04.590Z,17.70
2018-08-11T01:22:32.834Z,17.70
2018-08-11T01:25:01.081Z,17.80
2018-08-11T01:27:29.307Z,17.70
2018-08-11T01:29:57.552Z,17.70
2018-08-11T01:32:26.544Z,17.60
2018-08-11T01:34:55.532Z,17.50
2018-08-11T01:37:24.506Z,17.50
2018-08-11T01:39:53.164Z,17.50
2018-08-11T01:42:22.160Z,17.50
2018-08-11T01:44:50.387Z,17.60
2018-08-11T01:47:19.400Z,17.40
2018-08-11T01:49:48.427Z,17.40
2018-08-11T01:52:16.680Z,17.40
2018-08-11T01:54:44.913Z,17.50
2018-08-11T01:57:13.127Z,17.50
2018-08-11T01:59:41.340Z,17.50
2018-08-11T02:02:09.559Z,17.40
2018-08-11T02:04:38.586Z,17.30
2018-08-11T02:07:06.808Z,17.30
2018-08-11T02:09:35.010Z,17.40
2018-08-11T02:12:04.055Z,17.40
2018-08-11T02:14:32.255Z,17.40
2018-08-11T02:17:00.466Z,17.50
2018-08-11T02:19:29.469Z,17.50
2018-08-11T02:21:57.718Z,17.50
2018-08-11T02:24:25.927Z,17.50
2018-08-11T02:26:54.183Z,17.50
2018-08-11T02:29:23.163Z,17.60
2018-08-11T02:31:52.172Z,17.60
2018-08-11T02:34:21.192Z,17.60
2018-08-11T02:36:50.187Z,17.60
2018-08-11T02:39:18.405Z,17.60
2018-08-11T02:41:46.619Z,17.60
2018-08-11T02:44:14.843Z,17.50
2018-08-11T02:46:43.098Z,17.50
2018-08-11T02:49:11.345Z,17.50
2018-08-11T02:51:40.329Z,17.30
2018-08-11T02:54:09.367Z,17.40
2018-08-11T02:56:37.637Z,17.30
2018-08-11T02:59:05.879Z,17.40
2018-08-11T03:01:34.850Z,17.40
2018-08-11T03:04:03.069Z,17.40
2018-08-11T03:06:31.290Z,17.40
2018-08-11T03:08:59.557Z,17.40
2018-08-11T03:11:27.798Z,17.40
2018-08-11T03:13:56.077Z,17.30
2018-08-11T03:16:24.277Z,17.30
2018-08-11T03:18:52.491Z,17.20
2018-08-11T03:21:20.707Z,17.10
2018-08-11T03:23:48.950Z,16.90
2018-08-11T03:26:17.167Z,16.90
2018-08-11T03:28:45.422Z,16.90
2018-08-11T03:31:14.453Z,16.90
2018-08-11T03:33:42.656Z,16.90
2018-08-11T03:36:10.909Z,16.90
2018-08-11T03:38:39.138Z,16.90
2018-08-11T03:41:08.146Z,16.90
2018-08-11T03:43:36.434Z,16.90
2018-08-11T03:46:04.768Z,16.90
2018-08-11T03:48:33.709Z,16.90
2018-08-11T03:51:01.928Z,16.90
2018-08-11T03:53:30.160Z,17.00
2018-08-11T03:55:59.125Z,17.00
2018-08-11T03:58:28.136Z,17.00
2018-08-11T04:00:56.369Z,17.00
2018-08-11T04:03:24.577Z,17.00
2018-08-11T04:05:52.804Z,17.00
2018-08-11T04:08:21.813Z,17.00
2018-08-11T04:10:50.064Z,17.00
2018-08-11T04:13:18.300Z,17.00
2018-08-11T04:15:47.336Z,17.10
2018-08-11T04:18:15.597Z,17.00
2018-08-11T04:20:43.805Z,17.00
2018-08-11T04:23:12.075Z,17.00
2018-08-11T04:25:41.081Z,16.90
2018-08-11T04:28:09.289Z,16.90
2018-08-11T04:30:38.267Z,17.00
2018-08-11T04:33:07.298Z,17.00
2018-08-11T04:35:35.542Z,17.00
2018-08-11T04:38:03.759Z,17.00
2018-08-11T04:40:32.011Z,17.10
2018-08-11T04:43:01.003Z,17.00
2018-08-11T04:45:29.205Z,16.90
2018-08-11T04:47:57.436Z,17.00
2018-08-11T04:50:25.661Z,17.00
2018-08-11T04:52:53.865Z,17.00
2018-08-11T04:55:22.089Z,17.00
2018-08-11T04:57:50.302Z,16.90
2018-08-11T05:00:18.623Z,17.00
2018-08-11T05:02:46.837Z,17.00
2018-08-11T05:05:15.039Z,17.10
2018-08-11T05:07:43.303Z,17.10
2018-08-11T05:10:11.515Z,17.20
2018-08-11T05:12:40.465Z,17.20
2018-08-11T05:15:09.016Z,17.10
2018-08-11T05:17:37.252Z,17.10
2018-08-11T05:20:05.499Z,17.20
2018-08-11T05:22:33.730Z,17.20
2018-08-11T05:25:01.942Z,17.20
2018-08-11T05:27:30.213Z,17.20
2018-08-11T05:29:59.184Z,17.20
2018-08-11T05:32:28.186Z,17.20
2018-08-11T05:34:57.224Z,17.20
2018-08-11T05:37:25.476Z,17.20
2018-08-11T05:39:53.752Z,17.30
2018-08-11T05:42:21.942Z,17.40
2018-08-11T05:44:50.198Z,17.40
2018-08-11T05:47:18.459Z,17.50
2018-08-11T05:49:47.440Z,17.50
2018-08-11T05:52:15.656Z,17.50
2018-08-11T05:54:43.872Z,17.60
2018-08-11T05:57:12.118Z,17.70
2018-08-11T05:59:40.338Z,17.80
2018-08-11T06:02:09.341Z,17.90
2018-08-11T06:04:38.521Z,17.80
2018-08-11T06:07:06.782Z,17.70
2018-08-11T06:09:34.986Z,17.80
2018-08-11T06:12:03.190Z,17.90
2018-08-11T06:14:31.446Z,17.90
2018-08-11T06:16:59.665Z,18.00
2018-08-11T06:19:27.918Z,18.10
2018-08-11T06:21:56.130Z,18.20
2018-08-11T06:24:24.340Z,18.10
2018-08-11T06:26:52.566Z,18.10
2018-08-11T06:29:20.816Z,18.10
2018-08-11T06:31:49.884Z,18.50
2018-08-11T06:34:18.109Z,18.50
2018-08-11T06:36:46.362Z,18.80
2018-08-11T06:39:15.406Z,19.00
2018-08-11T06:41:43.658Z,19.00
2018-08-11T06:44:11.935Z,19.10
2018-08-11T06:46:40.963Z,19.20
2018-08-11T06:49:09.237Z,19.10
2018-08-11T06:51:37.479Z,19.00
2018-08-11T06:54:05.673Z,19.10
2018-08-11T06:56:33.891Z,19.20
2018-08-11T06:59:02.168Z,19.30
2018-08-11T07:01:32.227Z,19.30
2018-08-11T07:04:00.535Z,19.40
2018-08-11T07:06:29.639Z,19.40
2018-08-11T07:09:00.167Z,19.60
2018-08-11T07:11:29.212Z,19.50
2018-08-11T07:13:58.207Z,19.70
2018-08-11T07:16:27.192Z,19.70
2018-08-11T07:18:56.197Z,19.80
2018-08-11T07:21:24.442Z,19.80
2018-08-11T07:23:53.447Z,20.00
2018-08-11T07:26:21.704Z,20.10
2018-08-11T07:28:49.903Z,20.10
2018-08-11T07:31:18.967Z,20.30
2018-08-11T07:33:47.213Z,20.30
2018-08-11T07:36:15.481Z,20.30
2018-08-11T07:38:43.701Z,20.50
2018-08-11T07:41:11.923Z,20.50
2018-08-11T07:43:40.939Z,20.60
2018-08-11T07:46:09.149Z,20.50
2018-08-11T07:48:37.417Z,20.70
2018-08-11T07:51:05.632Z,20.80
2018-08-11T07:53:34.659Z,20.90
2018-08-11T07:56:03.028Z,20.90
2018-08-11T07:58:31.913Z,21.00
2018-08-11T08:01:00.146Z,21.00
2018-08-11T08:03:28.379Z,21.20
2018-08-11T08:05:56.639Z,21.20
2018-08-11T08:08:25.611Z,21.20
2018-08-11T08:10:54.651Z,21.30
2018-08-11T08:13:22.859Z,21.30
2018-08-11T08:15:51.129Z,21.30
2018-08-11T08:18:19.345Z,21.40
2018-08-11T08:20:48.393Z,21.40
2018-08-11T08:23:16.630Z,21.40
2018-08-11T08:25:45.651Z,21.50
2018-08-11T08:28:13.888Z,21.50
2018-08-11T08:30:42.905Z,21.70
2018-08-11T08:33:11.116Z,21.60
2018-08-11T08:35:39.331Z,21.70
2018-08-11T08:38:08.329Z,21.80
2018-08-11T08:40:37.317Z,21.80
2018-08-11T08:43:06.344Z,21.90
2018-08-11T08:45:34.611Z,21.90
2018-08-11T08:48:03.907Z,22.30
2018-08-11T08:50:32.173Z,22.20
2018-08-11T08:53:01.153Z,22.40
2018-08-11T08:55:29.449Z,22.40
2018-08-11T08:57:58.417Z,22.60
2018-08-11T09:00:26.657Z,22.50
2018-08-11T09:02:54.880Z,22.30
2018-08-11T09:05:23.962Z,22.20
2018-08-11T09:07:52.256Z,22.20
2018-08-11T09:10:20.460Z,22.00
2018-08-11T09:12:48.759Z,22.10
2018-08-11T09:15:17.019Z,22.20
2018-08-11T09:17:45.227Z,22.30
2018-08-11T09:20:13.459Z,22.40
2018-08-11T09:22:41.658Z,22.50
2018-08-11T09:25:09.901Z,22.60
2018-08-11T09:27:38.854Z,22.80
2018-08-11T09:30:07.129Z,22.80
2018-08-11T09:32:35.333Z,22.70
2018-08-11T09:35:04.384Z,22.60
2018-08-11T09:37:32.632Z,22.60
2018-08-11T09:40:00.880Z,22.60
2018-08-11T09:42:29.095Z,22.70
2018-08-11T09:44:57.303Z,22.80
2018-08-11T09:47:25.594Z,23.00
2018-08-11T09:49:53.844Z,23.10
2018-08-11T09:52:22.125Z,23.10
2018-08-11T09:54:50.339Z,23.20
2018-08-11T09:57:18.591Z,23.00
2018-08-11T09:59:46.846Z,23.00
2018-08-11T10:02:15.161Z,23.20
2018-08-11T10:04:43.377Z,23.30
2018-08-11T10:07:11.655Z,23.20
2018-08-11T10:09:39.917Z,23.20
2018-08-11T10:12:08.560Z,23.30
2018-08-11T10:14:36.789Z,23.50
2018-08-11T10:17:04.997Z,23.50
2018-08-11T10:19:33.253Z,23.70
2018-08-11T10:22:01.463Z,23.70
2018-08-11T10:24:30.577Z,23.70
2018-08-11T10:26:58.851Z,23.90
2018-08-11T10:29:27.081Z,23.70
2018-08-11T10:31:55.353Z,23.60
2018-08-11T10:34:23.553Z,23.70
2018-08-11T10:36:51.814Z,23.70
2018-08-11T10:39:20.047Z,23.70
2018-08-11T10:41:49.015Z,23.80
2018-08-11T10:44:17.254Z,23.80
2018-08-11T10:46:45.466Z,23.80
2018-08-11T10:49:13.747Z,23.40
2018-08-11T10:51:41.969Z,23.20
2018-08-11T10:54:10.191Z,23.30
2018-08-11T10:56:38.420Z,23.60
2018-08-11T10:59:07.439Z,23.60
2018-08-11T11:01:35.681Z,23.60
2018-08-11T11:04:04.699Z,23.90
2018-08-11T11:06:32.957Z,23.80
2018-08-11T11:09:01.973Z,23.90
2018-08-11T11:11:30.263Z,23.80
2018-08-11T11:13:58.466Z,23.90
2018-08-11T11:16:26.715Z,23.90
2018-08-11T11:18:54.933Z,24.00
2018-08-11T11:21:23.137Z,24.10
2018-08-11T11:23:51.363Z,24.20
2018-08-11T11:26:19.571Z,24.40
2018-08-11T11:28:48.569Z,24.90
2018-08-11T11:31:17.560Z,24.60
2018-08-11T11:33:46.539Z,24.90
2018-08-11T11:36:14.807Z,24.90
2018-08-11T11:38:43.044Z,25.10
2018-08-11T11:41:11.256Z,25.10
2018-08-11T11:43:39.475Z,25.20
2018-08-11T11:46:07.755Z,25.40
2018-08-11T11:48:36.020Z,25.50
2018-08-11T11:51:04.224Z,25.60
2018-08-11T11:53:32.451Z,25.70
2018-08-11T11:56:00.658Z,25.80
2018-08-11T11:58:28.919Z,25.80
2018-08-11T12:00:57.901Z,25.70
2018-08-11T12:03:26.129Z,25.70
2018-08-11T12:05:54.410Z,25.70
2018-08-11T12:08:22.660Z,25.60
2018-08-11T12:10:51.624Z,25.70
2018-08-11T12:13:19.898Z,25.70
2018-08-11T12:15:48.104Z,25.70
2018-08-11T12:18:16.316Z,25.90
2018-08-11T12:20:44.579Z,26.00
2018-08-11T12:23:12.834Z,26.00
2018-08-11T12:25:41.864Z,26.50
2018-08-11T12:28:10.063Z,26.40
2018-08-11T12:30:38.301Z,26.50
2018-08-11T12:33:06.520Z,26.40
2018-08-11T12:35:34.774Z,26.20
2018-08-11T12:38:03.121Z,26.00
2018-08-11T12:40:31.296Z,26.00
2018-08-11T12:42:59.555Z,26.10
2018-08-11T12:45:28.560Z,26.10
2018-08-11T12:47:56.789Z,26.10
2018-08-11T12:50:25.038Z,26.20
2018-08-11T12:52:53.251Z,26.50
2018-08-11T12:55:21.470Z,26.80
2018-08-11T12:57:49.746Z,26.90
2018-08-11T13:00:18.723Z,27.30
2018-08-11T13:02:47.859Z,27.30
2018-08-11T13:05:16.133Z,27.60
2018-08-11T13:07:44.344Z,27.80
2018-08-11T13:10:12.560Z,28.10
2018-08-11T13:12:40.787Z,28.20
2018-08-11T13:15:09.046Z,28.40
2018-08-11T13:17:37.273Z,28.40
2018-08-11T13:20:06.291Z,28.30
2018-08-11T13:22:34.554Z,28.30
2018-08-11T13:25:04.449Z,28.20
2018-08-11T13:27:32.654Z,28.20
2018-08-11T13:30:00.943Z,28.00
2018-08-11T13:32:29.147Z,28.00
2018-08-11T13:34:57.380Z,28.10
2018-08-11T13:37:25.646Z,28.30
2018-08-11T13:39:53.924Z,28.60
2018-08-11T13:42:22.133Z,29.00
2018-08-11T13:44:50.334Z,29.20
2018-08-11T13:47:18.585Z,28.90
2018-08-11T13:49:46.883Z,29.20
2018-08-11T13:52:15.834Z,29.60
2018-08-11T13:54:44.853Z,29.90
2018-08-11T13:57:13.086Z,29.80
2018-08-11T13:59:42.119Z,30.20
2018-08-11T14:02:10.364Z,30.20
2018-08-11T14:04:38.627Z,30.40
2018-08-11T14:07:06.887Z,30.50
2018-08-11T14:09:35.170Z,30.50
2018-08-11T14:12:03.382Z,30.60
2018-08-11T14:14:31.662Z,30.50
2018-08-11T14:16:59.886Z,30.60
2018-08-11T14:19:28.136Z,30.50
2018-08-11T14:21:56.350Z,30.40
2018-08-11T14:24:24.560Z,30.30
2018-08-11T14:26:52.788Z,30.20
2018-08-11T14:29:20.992Z,30.20
2018-08-11T14:31:50.000Z,30.40
2018-08-11T14:34:19.020Z,30.70
2018-08-11T14:36:47.231Z,30.60
2018-08-11T14:39:15.486Z,31.00
2018-08-11T14:41:43.731Z,31.20
2018-08-11T14:44:12.714Z,31.20
2018-08-11T14:46:43.222Z,31.00
2018-08-11T14:49:11.611Z,31.00
2018-08-11T14:51:41.088Z,30.90
2018-08-11T14:54:10.193Z,31.20
2018-08-11T14:56:38.430Z,31.20
2018-08-11T14:59:07.410Z,31.70
2018-08-11T15:01:35.629Z,31.70
2018-08-11T15:04:04.683Z,31.90
2018-08-11T15:06:32.905Z,31.90
2018-08-11T15:09:01.127Z,32.10
2018-08-11T15:11:30.156Z,32.30
2018-08-11T15:13:58.398Z,32.30
2018-08-11T15:16:27.392Z,32.50
2018-08-11T15:18:55.669Z,32.50
2018-08-11T15:21:24.671Z,32.80
2018-08-11T15:23:52.958Z,32.80
2018-08-11T15:26:21.946Z,32.70
2018-08-11T15:28:50.148Z,32.60
2018-08-11T15:31:18.404Z,32.60
2018-08-11T15:33:46.637Z,32.50
2018-08-11T15:36:14.891Z,32.30
2018-08-11T15:38:43.149Z,32.10
2018-08-11T15:41:11.431Z,32.10
2018-08-11T15:43:39.627Z,32.00
2018-08-11T15:46:07.852Z,31.90
2018-08-11T15:48:36.121Z,31.80
2018-08-11T15:51:05.151Z,31.50
2018-08-11T15:53:33.415Z,31.50
2018-08-11T15:56:01.631Z,31.50
2018-08-11T15:58:29.907Z,31.40
2018-08-11T16:00:58.135Z,31.30
2018-08-11T16:03:26.385Z,31.30
2018-08-11T16:05:54.723Z,31.20
2018-08-11T16:08:23.067Z,31.10
2018-08-11T16:10:52.069Z,30.80
2018-08-11T16:13:20.273Z,30.70
2018-08-11T16:15:48.545Z,30.70
2018-08-11T16:18:16.781Z,30.70
2018-08-11T16:20:45.812Z,30.60
2018-08-11T16:23:14.070Z,30.60
2018-08-11T16:25:42.296Z,30.60
2018-08-11T16:28:10.559Z,30.60
2018-08-11T16:30:38.769Z,30.60
2018-08-11T16:33:07.779Z,30.50
2018-08-11T16:35:36.022Z,30.50
2018-08-11T16:38:04.298Z,30.50
2018-08-11T16:40:32.557Z,30.40
2018-08-11T16:43:00.770Z,30.40
2018-08-11T16:45:29.778Z,30.20
2018-08-11T16:47:58.797Z,30.10
2018-08-11T16:50:27.788Z,30.00
2018-08-11T16:52:55.978Z,29.90
2018-08-11T16:55:24.271Z,29.80
2018-08-11T16:57:52.465Z,29.60
2018-08-11T17:00:20.730Z,29.40
2018-08-11T17:02:48.950Z,29.40
2018-08-11T17:05:17.932Z,29.10
2018-08-11T17:07:46.935Z,29.10
2018-08-11T17:10:15.902Z,28.90
2018-08-11T17:12:44.946Z,28.90
2018-08-11T17:15:13.189Z,28.80
2018-08-11T17:17:42.198Z,28.60
2018-08-11T17:20:11.816Z,28.50
2018-08-11T17:22:40.834Z,28.30
2018-08-11T17:25:09.126Z,28.30
2018-08-11T17:27:37.352Z,28.10
2018-08-11T17:30:06.394Z,27.70
2018-08-11T17:32:34.677Z,27.70
2018-08-11T17:35:02.923Z,27.60
2018-08-11T17:37:31.180Z,27.50
2018-08-11T17:40:00.197Z,27.20
2018-08-11T17:42:28.406Z,27.20
2018-08-11T17:44:56.673Z,27.10
2018-08-11T17:47:24.894Z,27.00
2018-08-11T17:49:53.905Z,26.80
2018-08-11T17:52:22.219Z,26.80
2018-08-11T17:54:50.498Z,26.70
2018-08-11T17:57:18.733Z,26.60
2018-08-11T17:59:47.769Z,26.40
2018-08-11T18:02:15.977Z,26.40
2018-08-11T18:04:44.257Z,26.30
2018-08-11T18:07:12.469Z,26.10
2018-08-11T18:09:40.680Z,26.10
2018-08-11T18:12:09.671Z,26.00
2018-08-11T18:14:37.924Z,25.90
2018-08-11T18:17:06.178Z,25.80
2018-08-11T18:19:35.193Z,25.70
2018-08-11T18:22:04.292Z,25.60
2018-08-11T18:24:32.535Z,25.60
2018-08-11T18:27:01.541Z,25.50
2018-08-11T18:29:30.569Z,25.40
2018-08-11T18:31:58.784Z,25.40
2018-08-11T18:34:26.999Z,25.30
2018-08-11T18:36:55.221Z,25.20
2018-08-11T18:39:23.456Z,25.20
2018-08-11T18:41:51.715Z,25.10
2018-08-11T18:44:20.724Z,25.00
2018-08-11T18:46:48.948Z,25.00
2018-08-11T18:49:17.594Z,24.90
2018-08-11T18:51:47.092Z,24.80
2018-08-11T18:54:15.344Z,24.60
2018-08-11T18:56:44.401Z,24.40
2018-08-11T18:59:12.657Z,24.40
2018-08-11T19:01:40.902Z,24.30
2018-08-11T19:04:10.244Z,24.20
2018-08-11T19:06:38.539Z,24.10
2018-08-11T19:09:06.773Z,23.90
2018-08-11T19:11:35.038Z,23.70
2018-08-11T19:14:04.044Z,23.40
2018-08-11T19:16:32.337Z,23.40
2018-08-11T19:19:00.546Z,23.40
2018-08-11T19:21:30.861Z,23.20
2018-08-11T19:24:00.788Z,23.00
2018-08-11T19:26:29.460Z,22.90
2018-08-11T19:28:57.688Z,22.70
2018-08-11T19:31:25.985Z,22.60
2018-08-11T19:33:54.236Z,22.30
2018-08-11T19:36:23.252Z,22.00
2018-08-11T19:38:51.536Z,22.00
2018-08-11T19:41:20.131Z,21.80
2018-08-11T19:43:48.396Z,21.70
2018-08-11T19:46:16.741Z,21.60
2018-08-11T19:48:47.412Z,21.50
2018-08-11T19:51:15.975Z,21.40
2018-08-11T19:53:46.481Z,21.20
2018-08-11T19:56:14.829Z,21.20
2018-08-11T19:58:43.094Z,21.10
2018-08-11T20:01:12.296Z,21.00
2018-08-11T20:03:40.504Z,20.90
2018-08-11T20:06:08.801Z,20.80
2018-08-11T20:08:37.846Z,20.50
2018-08-11T20:11:06.133Z,20.50
2018-08-11T20:13:34.407Z,20.40
2018-08-11T20:16:02.707Z,20.30
2018-08-11T20:18:30.989Z,20.20
2018-08-11T20:20:59.210Z,20.20
2018-08-11T20:23:27.451Z,20.10
2018-08-11T20:25:56.525Z,19.90
2018-08-11T20:28:24.728Z,19.90
2018-08-11T20:30:53.723Z,19.70
2018-08-11T20:33:22.002Z,19.70
2018-08-11T20:35:50.991Z,19.50
2018-08-11T20:38:19.982Z,19.40
2018-08-11T20:40:49.039Z,19.30
2018-08-11T20:43:17.273Z,19.30
2018-08-11T20:45:46.357Z,19.20
2018-08-11T20:48:15.351Z,19.10
2018-08-11T20:50:44.325Z,19.00
2018-08-11T20:53:13.334Z,18.90
2018-08-11T20:55:42.350Z,18.90
2018-08-11T20:58:10.586Z,18.90
2018-08-11T21:00:38.866Z,18.80
2018-08-11T21:03:07.103Z,18.60
2018-08-11T21:05:35.337Z,18.40
2018-08-11T21:08:04.492Z,18.20
2018-08-11T21:10:32.699Z,18.20
2018-08-11T21:13:01.792Z,18.20
2018-08-11T21:15:30.200Z,18.20
2018-08-11T21:17:58.431Z,18.20
2018-08-11T21:20:26.643Z,18.20
2018-08-11T21:22:54.886Z,18.20
2018-08-11T21:25:23.080Z,18.20
2018-08-11T21:27:52.079Z,18.10
2018-08-11T21:30:21.093Z,18.10
2018-08-11T21:32:49.356Z,18.10
2018-08-11T21:35:18.361Z,18.00
2018-08-11T21:37:46.664Z,18.00
2018-08-11T21:40:14.873Z,17.90
2018-08-11T21:42:43.114Z,17.80
2018-08-11T21:45:11.389Z,17.80
2018-08-11T21:47:39.588Z,17.70
2018-08-11T21:50:07.846Z,17.70
2018-08-11T21:52:36.132Z,17.60
2018-08-11T21:55:04.351Z,17.50
2018-08-11T21:57:32.780Z,17.40
2018-08-11T22:00:01.002Z,17.30
2018-08-11T22:02:29.267Z,17.30
2018-08-11T22:04:58.230Z,17.20
2018-08-11T22:07:26.440Z,17.00
2018-08-11T22:09:54.712Z,17.00
2018-08-11T22:12:22.969Z,17.00
2018-08-11T22:14:52.890Z,16.80
2018-08-11T22:17:21.174Z,16.80
2018-08-11T22:19:49.380Z,16.70
2018-08-11T22:22:18.413Z,16.60
2018-08-11T22:24:46.639Z,16.60
2018-08-11T22:27:15.485Z,16.60
2018-08-11T22:29:43.748Z,16.50
2018-08-11T22:32:12.004Z,16.50
2018-08-11T22:34:40.264Z,16.40
2018-08-11T22:37:08.458Z,16.40
2018-08-11T22:39:36.717Z,16.40
2018-08-11T22:42:04.972Z,16.40
2018-08-11T22:44:33.219Z,16.40
2018-08-11T22:47:01.598Z,16.40
2018-08-11T22:49:29.799Z,16.30
2018-08-11T22:51:58.035Z,16.20
2018-08-11T22:54:26.287Z,16.20
2018-08-11T22:56:55.288Z,15.90
2018-08-11T22:59:24.267Z,15.90
2018-08-11T23:01:52.495Z,15.80
2018-08-11T23:04:20.715Z,15.80
2018-08-11T23:06:48.957Z,15.70
2018-08-11T23:09:17.343Z,15.80
2018-08-11T23:11:45.597Z,15.70
2018-08-11T23:14:13.825Z,15.70
2018-08-11T23:16:42.027Z,15.60
2018-08-11T23:19:11.009Z,15.60
2018-08-11T23:21:40.036Z,15.40
2018-08-11T23:24:08.271Z,15.40
2018-08-11T23:26:37.260Z,15.30
2018-08-11T23:29:05.507Z,15.30
2018-08-11T23:31:33.715Z,15.20
2018-08-11T23:34:02.695Z,15.00
2018-08-11T23:36:30.935Z,15.00
2018-08-11T23:38:59.203Z,15.00
2018-08-11T23:41:27.460Z,14.80
2018-08-11T23:43:56.427Z,14.60
2018-08-11T23:46:24.678Z,14.60
2018-08-11T23:48:52.911Z,14.60
2018-08-11T23:51:21.915Z,14.60
2018-08-11T23:53:50.122Z,14.60
2018-08-11T23:56:18.329Z,14.60
2018-08-11T23:58:47.323Z,14.60
